Time;durP1;ratioP1;P1;durP2;ratioP2;P2;SDS_P1;SDS_P2;PMS_P1;PMS_P2;Temp;Humidity;BMP_temperature;BMP_pressure;BME280_temperature;BME280_humidity;BME280_pressure;Samples;Min_cycle;Max_cycle;Signal;HPM_P1;HPM_P2
2022/08/30 00:01:02;;;;;;;12.02;7.03;;;;;;;16.68;87.17;101909.16;4770220;30;20097;-61
2022/08/30 00:03:37;;;;;;;9.23;6.53;;;;;;;16.71;86.69;101902.94;4769979;30;20442;-61
2022/08/30 00:06:05;;;;;;;8.93;6.78;;;;;;;16.63;87.60;101902.22;4769945;30;20039;-62
2022/08/30 00:08:33;;;;;;;11.35;6.45;;;;;;;16.62;87.43;101900.50;4770048;30;20051;-63
2022/08/30 00:10:59;;;;;;;11.73;6.80;;;;;;;16.54;88.06;101902.41;4769865;30;20524;-62
2022/08/30 00:13:24;;;;;;;12.23;7.25;;;;;;;16.49;88.60;101901.63;4770031;30;20036;-61
2022/08/30 00:15:50;;;;;;;10.82;7.20;;;;;;;16.51;88.18;101900.69;4769912;30;20365;-61
2022/08/30 00:18:17;;;;;;;12.45;7.20;;;;;;;16.51;88.62;101899.84;4769908;30;20347;-61
2022/08/30 00:20:44;;;;;;;11.35;6.95;;;;;;;16.48;88.84;101902.53;4769781;30;20035;-63
2022/08/30 00:23:09;;;;;;;12.65;6.72;;;;;;;16.48;88.71;101913.09;4769680;30;20568;-62
2022/08/30 00:25:35;;;;;;;11.07;7.20;;;;;;;16.29;89.47;101886.19;4769567;30;20048;-63
2022/08/30 00:28:01;;;;;;;12.50;7.20;;;;;;;16.36;89.46;101901.91;4769498;30;20471;-61
2022/08/30 00:30:26;;;;;;;9.75;6.32;;;;;;;16.34;89.99;101910.75;4769824;30;20063;-61
2022/08/30 00:32:52;;;;;;;9.98;6.85;;;;;;;16.39;89.84;101908.03;4769657;30;20423;-62
2022/08/30 00:35:19;;;;;;;12.30;6.90;;;;;;;16.32;89.93;101912.53;4769568;30;20130;-62
2022/08/30 00:37:45;;;;;;;11.55;6.72;;;;;;;16.37;90.40;101900.13;4769594;30;20043;-60
2022/08/30 00:40:14;;;;;;;11.27;6.95;;;;;;;16.41;90.13;101908.84;4769614;30;20481;-61
2022/08/30 00:42:41;;;;;;;11.90;6.78;;;;;;;16.38;90.42;101901.00;4769599;30;20047;-61
2022/08/30 00:45:23;;;;;;;8.15;6.88;;;;;;;16.42;90.45;101907.97;4769230;30;20393;-61
2022/08/30 00:47:48;;;;;;;11.13;7.00;;;;;;;16.47;89.99;101908.72;4769349;30;20043;-62
2022/08/30 00:50:19;;;;;;;10.32;6.88;;;;;;;16.44;90.21;101903.53;4769055;30;20044;-61
2022/08/30 00:52:47;;;;;;;9.43;6.75;;;;;;;16.51;90.10;101910.41;4769307;30;20043;-60
2022/08/30 00:55:15;;;;;;;9.88;6.55;;;;;;;16.53;90.04;101906.81;4769119;30;20505;-60
2022/08/30 00:57:44;;;;;;;9.93;6.97;;;;;;;16.52;90.44;101915.66;4769290;30;20042;-61
2022/08/30 01:00:11;;;;;;;9.90;6.45;;;;;;;16.50;90.36;101906.00;4769052;30;20141;-61
2022/08/30 01:02:37;;;;;;;11.68;6.35;;;;;;;16.55;90.74;101909.44;4769101;30;20047;-62
2022/08/30 01:05:05;;;;;;;9.93;6.57;;;;;;;16.58;90.63;101912.91;4768967;30;20415;-60
2022/08/30 01:07:33;;;;;;;10.65;6.68;;;;;;;16.57;90.64;101910.28;4768979;30;20343;-60
2022/08/30 01:10:00;;;;;;;10.73;6.80;;;;;;;16.44;91.06;101900.88;4768776;30;20535;-62
2022/08/30 01:12:27;;;;;;;11.48;7.18;;;;;;;16.51;91.75;101915.69;4768635;30;20044;-61
2022/08/30 01:14:52;;;;;;;10.93;6.85;;;;;;;16.48;91.32;101908.69;4768585;30;20051;-61
2022/08/30 01:17:18;;;;;;;7.82;6.75;;;;;;;16.54;91.41;101920.91;4768889;30;20044;-60
2022/08/30 01:19:51;;;;;;;9.80;6.55;;;;;;;16.58;91.33;101920.81;4768892;30;20040;-61
2022/08/30 01:22:20;;;;;;;9.38;6.28;;;;;;;16.55;91.62;101931.44;4768829;30;20080;-60
2022/08/30 01:24:47;;;;;;;9.55;6.75;;;;;;;16.54;91.78;101919.13;4768685;30;20045;-60
2022/08/30 01:27:14;;;;;;;12.75;6.47;;;;;;;16.50;91.67;101914.81;4768626;30;20118;-60
2022/08/30 01:29:43;;;;;;;9.82;6.80;;;;;;;16.51;91.99;101915.69;4768732;30;20093;-62
2022/08/30 01:32:19;;;;;;;7.40;6.28;;;;;;;16.48;92.00;101911.31;4768795;30;20096;-61
2022/08/30 01:34:48;;;;;;;8.13;6.63;;;;;;;16.43;92.17;101915.84;4768750;30;20529;-61
2022/08/30 01:37:34;;;;;;;10.25;6.43;;;;;;;16.42;91.73;101915.88;4768660;30;20091;-60
2022/08/30 01:40:00;;;;;;;9.50;6.28;;;;;;;16.41;92.56;101914.16;4767633;30;20075;-61
2022/08/30 01:42:26;;;;;;;8.82;6.50;;;;;;;16.34;92.77;101911.63;4768500;30;20363;-62
2022/08/30 01:44:51;;;;;;;8.98;5.97;;;;;;;16.35;92.78;101908.06;4768656;30;20362;-61
2022/08/30 01:47:18;;;;;;;9.50;6.63;;;;;;;16.24;93.05;101907.44;4768579;30;20079;-61
2022/08/30 01:49:44;;;;;;;12.45;6.82;;;;;;;16.29;93.19;101926.69;4768003;30;20044;-61
2022/08/30 01:52:10;;;;;;;9.85;6.32;;;;;;;16.28;93.31;101922.28;4768050;30;20434;-61
2022/08/30 01:54:39;;;;;;;11.02;6.60;;;;;;;16.24;93.79;101918.00;4768041;30;20066;-59
2022/08/30 01:57:08;;;;;;;10.45;6.53;;;;;;;16.22;93.64;101919.78;4768438;30;20039;-61
2022/08/30 01:59:35;;;;;;;10.68;7.05;;;;;;;16.24;94.02;101917.13;4768606;30;20362;-61
2022/08/30 02:02:00;;;;;;;12.50;6.90;;;;;;;16.25;93.36;101906.53;4768321;30;20127;-63
2022/08/30 02:04:26;;;;;;;9.18;6.97;;;;;;;16.25;93.61;101909.19;4768322;30;20056;-61
2022/08/30 02:06:52;;;;;;;9.98;6.53;;;;;;;16.19;93.80;101911.94;4768444;30;20043;-62
2022/08/30 02:09:17;;;;;;;11.40;7.38;;;;;;;16.15;94.24;101906.72;4768244;30;20104;-61
2022/08/30 02:11:43;;;;;;;10.07;6.60;;;;;;;16.06;94.40;101893.72;4768412;30;20067;-60
2022/08/30 02:14:08;;;;;;;9.07;6.60;;;;;;;16.08;94.39;101900.72;4768351;30;20461;-60
2022/08/30 02:16:34;;;;;;;10.15;7.40;;;;;;;16.03;94.77;101905.19;4768220;30;20043;-61
2022/08/30 02:18:59;;;;;;;8.70;6.57;;;;;;;15.96;94.90;101900.91;4768374;30;20052;-61
2022/08/30 02:21:26;;;;;;;11.27;7.40;;;;;;;15.98;95.38;101907.91;4768220;30;20489;-61
2022/08/30 02:23:52;;;;;;;14.02;7.65;;;;;;;15.94;95.50;101903.59;4768216;30;20754;-62
2022/08/30 02:26:18;;;;;;;10.55;7.28;;;;;;;16.00;95.38;101907.91;4768434;30;20032;-62
2022/08/30 02:28:44;;;;;;;12.23;7.65;;;;;;;15.94;95.49;101905.34;4768240;30;20047;-60
2022/08/30 02:31:10;;;;;;;10.02;7.15;;;;;;;15.92;95.98;101901.91;4768022;30;20055;-61
2022/08/30 02:33:35;;;;;;;10.20;7.50;;;;;;;15.92;95.50;101891.34;4768048;30;20422;-62
2022/08/30 02:36:00;;;;;;;9.55;6.93;;;;;;;15.98;95.34;101896.50;4768072;30;20071;-60
2022/08/30 02:38:26;;;;;;;10.40;7.25;;;;;;;15.92;95.21;101888.69;4768141;30;20043;-60
2022/08/30 02:40:51;;;;;;;9.57;7.80;;;;;;;15.88;96.14;101897.56;4767910;30;20047;-63
2022/08/30 02:43:17;;;;;;;10.15;7.13;;;;;;;15.91;95.82;101897.53;4768154;30;20443;-60
2022/08/30 02:45:42;;;;;;;10.93;7.95;;;;;;;15.92;95.82;101884.28;4768041;30;20074;-61
2022/08/30 02:48:08;;;;;;;11.13;7.85;;;;;;;15.90;96.13;101896.66;4767900;30;20044;-61
2022/08/30 02:50:33;;;;;;;12.60;8.18;;;;;;;15.88;96.15;101894.94;4767826;30;20132;-61
2022/08/30 02:52:59;;;;;;;11.10;7.57;;;;;;;15.87;95.88;101887.91;4771153;30;20055;-60
2022/08/30 02:55:24;;;;;;;17.38;7.43;;;;;;;15.84;96.21;101883.56;4771134;30;20439;-62
2022/08/30 02:57:49;;;;;;;11.55;8.10;;;;;;;15.80;96.40;101881.88;4771481;30;20043;-61
2022/08/30 03:00:18;;;;;;;11.20;7.90;;;;;;;15.77;96.56;101881.03;4771419;30;20040;-61
2022/08/30 03:02:44;;;;;;;11.25;8.18;;;;;;;15.72;96.96;101877.63;4771174;30;20470;-62
2022/08/30 03:05:11;;;;;;;11.13;8.25;;;;;;;15.70;97.19;101882.06;4770922;30;20097;-62
2022/08/30 03:07:37;;;;;;;10.50;8.55;;;;;;;15.59;97.17;101869.03;4770789;30;20497;-63
2022/08/30 03:10:03;;;;;;;10.48;8.02;;;;;;;15.72;96.97;101881.16;4770938;30;20040;-61
2022/08/30 03:12:28;;;;;;;10.80;7.88;;;;;;;15.68;97.09;101879.47;4770962;30;20053;-62
2022/08/30 03:14:53;;;;;;;10.90;8.48;;;;;;;15.66;97.15;101876.84;4770994;30;20097;-61
2022/08/30 03:17:19;;;;;;;10.38;7.95;;;;;;;15.65;97.51;101880.38;4770721;30;20028;-62
2022/08/30 03:19:45;;;;;;;9.65;8.30;;;;;;;15.64;97.65;101880.41;4770654;30;20434;-61
2022/08/30 03:22:10;;;;;;;11.13;7.85;;;;;;;15.68;97.84;101883.88;4770748;30;20043;-60
2022/08/30 03:24:36;;;;;;;10.93;7.47;;;;;;;15.79;96.98;101882.75;4770728;30;20462;-60
2022/08/30 03:27:01;;;;;;;10.40;7.80;;;;;;;15.86;96.53;101887.03;4770683;30;20043;-61
2022/08/30 03:29:28;;;;;;;11.23;8.48;;;;;;;15.89;96.11;101886.97;4770923;30;20035;-64
2022/08/30 03:31:54;;;;;;;11.35;8.50;;;;;;;15.90;96.13;101880.81;4770564;30;20075;-60
2022/08/30 03:34:20;;;;;;;12.90;8.60;;;;;;;15.90;95.95;101879.94;4770517;30;20075;-60
2022/08/30 03:36:47;;;;;;;10.07;7.90;;;;;;;15.91;95.71;101873.75;4770601;30;20086;-61
2022/08/30 03:39:12;;;;;;;9.70;8.35;;;;;;;15.85;95.94;101873.88;4770574;30;20036;-62
2022/08/30 03:41:38;;;;;;;13.27;8.85;;;;;;;15.81;96.11;101878.31;4770605;30;20043;-62
2022/08/30 03:44:03;;;;;;;10.55;8.60;;;;;;;15.83;95.95;101873.88;4770459;30;20103;-61
2022/08/30 03:46:29;;;;;;;9.75;7.95;;;;;;;15.77;96.05;101876.63;4770434;30;20122;-62
2022/08/30 03:48:54;;;;;;;11.43;8.90;;;;;;;15.80;95.89;101883.63;4770144;30;20465;-61
2022/08/30 03:51:23;;;;;;;11.95;9.02;;;;;;;15.71;96.51;101889.97;4770163;30;20052;-63
2022/08/30 03:53:48;;;;;;;11.00;8.52;;;;;;;15.70;96.67;101882.94;4770050;30;20044;-62
2022/08/30 03:56:14;;;;;;;11.50;8.90;;;;;;;15.72;96.45;101882.91;4770210;30;20075;-60
2022/08/30 03:58:39;;;;;;;13.05;8.43;;;;;;;15.69;96.34;101886.47;4770181;30;20051;-60
2022/08/30 04:01:05;;;;;;;10.73;9.43;;;;;;;15.68;96.64;101876.81;4770161;30;20044;-61
2022/08/30 04:03:31;;;;;;;10.18;8.68;;;;;;;15.68;96.72;101876.81;4769403;30;20047;-61
2022/08/30 04:05:56;;;;;;;15.82;9.57;;;;;;;15.60;97.05;101876.06;4770071;30;20052;-64
2022/08/30 04:08:22;;;;;;;11.55;8.88;;;;;;;15.58;97.36;101883.16;4770045;30;20463;-60
2022/08/30 04:10:47;;;;;;;12.52;9.52;;;;;;;15.56;97.31;101877.03;4770031;30;20081;-60
2022/08/30 04:13:13;;;;;;;10.43;9.38;;;;;;;15.56;97.42;101879.69;4770104;30;20116;-63
2022/08/30 04:15:39;;;;;;;11.15;10.00;;;;;;;15.49;97.75;101878.00;4783517;29;20374;-61
2022/08/30 04:18:05;;;;;;;12.80;10.05;;;;;;;15.42;98.22;101882.50;4769851;30;20046;-64
2022/08/30 04:20:30;;;;;;;11.85;9.88;;;;;;;15.46;98.61;101878.03;4769786;30;20473;-63
2022/08/30 04:22:55;;;;;;;14.48;9.93;;;;;;;15.39;98.69;101879.94;4769666;30;20063;-60
2022/08/30 04:25:21;;;;;;;11.27;9.80;;;;;;;15.34;98.94;101887.03;4769808;30;20146;-61
2022/08/30 04:27:46;;;;;;;11.52;9.32;;;;;;;15.35;98.72;101893.19;4769844;30;20082;-62
2022/08/30 04:30:13;;;;;;;13.88;10.38;;;;;;;15.36;98.81;101892.28;4768943;30;20144;-63
2022/08/30 04:32:39;;;;;;;13.82;10.32;;;;;;;15.32;99.11;101894.97;4769508;30;20059;-62
2022/08/30 04:35:05;;;;;;;14.35;10.13;;;;;;;15.36;99.05;101892.28;4769444;30;20043;-62
2022/08/30 04:37:30;;;;;;;12.77;10.20;;;;;;;15.42;98.93;101897.44;4769646;30;20067;-63
2022/08/30 04:39:59;;;;;;;14.10;10.32;;;;;;;15.40;98.90;101892.22;4769434;30;20056;-62
2022/08/30 04:42:24;;;;;;;12.90;10.75;;;;;;;15.46;98.40;101896.50;4769171;30;20051;-63
2022/08/30 04:44:50;;;;;;;11.63;10.20;;;;;;;15.49;97.99;101899.97;4769413;30;20092;-62
2022/08/30 04:47:17;;;;;;;13.52;10.93;;;;;;;15.49;98.31;101904.38;4769275;30;20050;-62
2022/08/30 04:49:42;;;;;;;13.10;11.23;;;;;;;15.45;98.42;101898.28;4768938;30;20036;-61
2022/08/30 04:52:09;;;;;;;11.88;10.68;;;;;;;15.49;98.22;101905.25;4768138;30;20043;-63
2022/08/30 04:54:35;;;;;;;14.75;10.90;;;;;;;15.46;98.47;101907.06;4768762;30;20497;-61
2022/08/30 04:57:00;;;;;;;13.20;10.50;;;;;;;15.42;98.60;101903.59;4769614;30;20043;-65
2022/08/30 04:59:25;;;;;;;13.85;10.80;;;;;;;15.36;98.79;101908.13;4768732;30;20040;-62
2022/08/30 05:01:51;;;;;;;17.10;11.00;;;;;;;15.29;99.39;101913.47;4769057;30;20042;-59
2022/08/30 05:04:16;;;;;;;14.27;10.93;;;;;;;15.27;99.59;101906.50;4768919;30;20395;-61
2022/08/30 05:06:41;;;;;;;13.25;11.32;;;;;;;15.28;99.35;101910.88;4769039;30;20051;-61
2022/08/30 05:09:07;;;;;;;13.18;11.10;;;;;;;15.30;99.34;101898.53;4768964;30;20074;-61
2022/08/30 05:11:32;;;;;;;19.63;12.35;;;;;;;15.24;99.69;101912.69;4769066;30;20054;-63
2022/08/30 05:13:57;;;;;;;13.57;11.65;;;;;;;15.24;99.54;101909.16;4768539;30;20072;-60
2022/08/30 05:16:23;;;;;;;14.85;12.48;;;;;;;15.21;99.61;101910.09;4768482;30;20047;-60
2022/08/30 05:18:50;;;;;;;18.08;12.60;;;;;;;15.27;99.69;101919.66;4768745;30;20047;-62
2022/08/30 05:21:21;;;;;;;14.05;11.30;;;;;;;15.26;100.00;101921.44;4768927;30;20053;-60
2022/08/30 05:23:48;;;;;;;14.97;12.20;;;;;;;15.24;99.75;101915.31;4768894;30;20050;-62
2022/08/30 05:26:23;;;;;;;16.88;13.25;;;;;;;15.17;99.87;101924.22;4768875;30;20043;-62
2022/08/30 05:28:50;;;;;;;20.02;12.30;;;;;;;15.22;100.00;101929.44;4768499;30;20112;-59
2022/08/30 05:31:27;;;;;;;21.55;14.07;;;;;;;15.23;100.00;101936.47;4768293;30;20490;-58
2022/08/30 05:33:53;;;;;;;16.60;12.80;;;;;;;15.29;100.00;101931.94;4768714;30;20527;-58
2022/08/30 05:36:22;;;;;;;20.23;12.88;;;;;;;15.36;99.78;101934.50;4768631;30;20079;-60
2022/08/30 05:38:48;;;;;;;18.77;13.55;;;;;;;15.40;99.39;101937.06;4768717;30;20039;-58
2022/08/30 05:41:14;;;;;;;19.45;13.73;;;;;;;15.43;99.38;101933.47;4768364;30;20039;-59
2022/08/30 05:43:39;;;;;;;17.77;12.98;;;;;;;15.47;99.10;101930.78;4768414;30;20047;-59
2022/08/30 05:46:09;;;;;;;18.63;13.88;;;;;;;15.48;98.83;101935.16;4768307;30;20054;-60
2022/08/30 05:48:35;;;;;;;16.63;13.20;;;;;;;15.52;98.73;101928.94;4768236;30;20044;-59
2022/08/30 05:51:13;;;;;;;21.00;14.20;;;;;;;15.55;98.36;101936.84;4768350;30;20040;-60
2022/08/30 05:53:39;;;;;;;18.60;14.13;;;;;;;15.53;98.39;101933.34;4768183;30;20043;-62
2022/08/30 05:56:07;;;;;;;19.88;14.10;;;;;;;15.49;98.84;101931.63;4767918;30;20474;-61
2022/08/30 05:58:33;;;;;;;23.85;13.90;;;;;;;15.45;98.80;101924.66;4768302;30;20050;-60
2022/08/30 06:00:59;;;;;;;20.27;14.85;;;;;;;15.46;98.89;101926.41;4768347;30;20051;-60
2022/08/30 06:03:24;;;;;;;29.33;14.50;;;;;;;15.48;98.95;101926.38;4768288;30;20039;-58
2022/08/30 06:05:50;;;;;;;26.42;15.02;;;;;;;15.59;98.79;101930.59;4768337;30;20355;-59
2022/08/30 06:08:15;;;;;;;25.92;15.15;;;;;;;15.68;97.96;101936.63;4768402;30;20114;-60
2022/08/30 06:10:40;;;;;;;27.45;15.20;;;;;;;15.65;98.15;101938.44;4768052;30;20040;-60
2022/08/30 06:13:06;;;;;;;21.70;15.15;;;;;;;15.71;97.58;101928.69;4768239;30;20408;-59
2022/08/30 06:15:31;;;;;;;21.83;15.30;;;;;;;15.76;97.43;101935.59;4768218;30;20450;-58
2022/08/30 06:17:56;;;;;;;19.80;15.10;;;;;;;15.78;97.18;101919.72;4764800;30;20058;-60
2022/08/30 06:20:22;;;;;;;20.10;15.40;;;;;;;15.87;97.25;101943.34;4767510;30;20051;-60
2022/08/30 06:22:47;;;;;;;16.63;14.82;;;;;;;15.92;97.03;101933.59;4767690;30;20112;-60
2022/08/30 06:25:15;;;;;;;22.48;15.27;;;;;;;15.95;96.67;101931.72;4767942;30;20044;-60
2022/08/30 06:27:41;;;;;;;19.67;15.07;;;;;;;15.92;96.64;101915.97;4770524;30;20127;-58
2022/08/30 06:30:07;;;;;;;22.23;15.35;;;;;;;16.01;95.70;101912.28;4771346;30;20126;-58
2022/08/30 06:32:33;;;;;;;18.80;14.75;;;;;;;16.07;95.69;101927.16;4771720;30;20452;-60
2022/08/30 06:34:58;;;;;;;19.58;14.80;;;;;;;16.06;95.52;101928.91;4771723;30;20035;-60
2022/08/30 06:37:24;;;;;;;18.45;15.07;;;;;;;16.07;94.88;101925.38;4771509;30;20046;-60
2022/08/30 06:39:49;;;;;;;16.30;14.35;;;;;;;16.20;94.38;101918.94;4771009;30;20126;-60
2022/08/30 06:42:14;;;;;;;15.63;13.93;;;;;;;16.14;94.93;101926.09;4771541;30;20172;-60
2022/08/30 06:44:40;;;;;;;17.60;14.63;;;;;;;16.26;94.14;101920.63;4771320;30;20051;-60
2022/08/30 06:47:05;;;;;;;20.45;14.82;;;;;;;16.34;93.80;101926.59;4771196;30;20051;-60
2022/08/30 06:49:30;;;;;;;15.68;13.80;;;;;;;16.45;93.50;101931.69;4771090;30;20099;-61
2022/08/30 06:51:56;;;;;;;17.10;12.95;;;;;;;16.54;91.80;101926.19;4771153;30;20043;-62
2022/08/30 06:54:21;;;;;;;17.67;13.48;;;;;;;16.45;92.64;101929.03;4771181;30;20059;-60
2022/08/30 06:56:46;;;;;;;17.10;13.93;;;;;;;16.50;93.27;101929.78;4770984;30;20043;-60
2022/08/30 06:59:12;;;;;;;17.02;13.95;;;;;;;16.54;92.19;101926.19;4770926;30;20039;-60
2022/08/30 07:01:38;;;;;;;16.65;13.95;;;;;;;16.69;92.46;101934.69;4771063;30;20435;-60
2022/08/30 07:04:03;;;;;;;16.50;13.50;;;;;;;16.82;91.40;101939.72;4770758;30;20048;-60
2022/08/30 07:06:31;;;;;;;14.30;12.30;;;;;;;16.93;89.94;101930.66;4771073;30;20047;-60
2022/08/30 07:08:56;;;;;;;17.13;12.07;;;;;;;17.14;89.26;101925.78;4771044;30;20079;-60
2022/08/30 07:11:28;;;;;;;15.07;12.07;;;;;;;17.37;88.11;101929.63;4770653;30;20457;-60
2022/08/30 07:13:53;;;;;;;12.32;11.10;;;;;;;17.49;86.71;101919.66;4770839;30;20043;-59
2022/08/30 07:16:18;;;;;;;12.52;11.10;;;;;;;17.54;86.42;101929.19;4770923;30;20059;-60
2022/08/30 07:18:49;;;;;;;12.68;11.20;;;;;;;17.61;86.82;101916.69;4770905;30;20043;-61
2022/08/30 07:21:19;;;;;;;12.50;11.15;;;;;;;17.67;84.67;101933.31;4770607;30;20035;-59
2022/08/30 07:23:47;;;;;;;16.25;10.32;;;;;;;17.68;84.44;101935.03;4770673;30;20055;-59
2022/08/30 07:26:14;;;;;;;12.40;10.75;;;;;;;17.78;84.37;101940.13;4765051;30;20538;-59
2022/08/30 07:28:42;;;;;;;13.68;11.48;;;;;;;17.85;83.65;101936.38;4758261;30;20051;-59
2022/08/30 07:31:08;;;;;;;12.48;10.85;;;;;;;17.90;83.09;101942.44;4755008;30;20139;-60
2022/08/30 07:33:34;;;;;;;12.35;10.65;;;;;;;17.87;83.68;101946.03;4752851;30;20538;-60
2022/08/30 07:36:00;;;;;;;13.90;10.75;;;;;;;17.86;83.70;101936.34;4756266;30;20181;-60
2022/08/30 07:38:25;;;;;;;12.65;10.80;;;;;;;17.89;83.21;101941.56;4769448;30;20458;-61
2022/08/30 07:40:51;;;;;;;12.95;10.65;;;;;;;17.87;83.53;101934.56;4770496;30;20367;-61
2022/08/30 07:43:16;;;;;;;14.02;10.63;;;;;;;17.89;83.24;101940.69;4770391;30;20212;-59
2022/08/30 07:45:42;;;;;;;11.07;9.98;;;;;;;17.93;82.82;101937.06;4770428;30;20047;-60
2022/08/30 07:48:10;;;;;;;14.60;11.65;;;;;;;17.88;83.34;101936.31;4770490;30;20078;-59
2022/08/30 07:50:35;;;;;;;11.82;10.63;;;;;;;17.98;82.58;101943.13;4770250;30;20457;-60
2022/08/30 07:53:01;;;;;;;13.05;10.50;;;;;;;18.02;83.55;101929.72;4766742;30;20048;-59
2022/08/30 07:55:26;;;;;;;14.07;10.70;;;;;;;18.16;81.96;101932.03;4770041;30;20063;-60
2022/08/30 07:57:51;;;;;;;13.70;9.63;;;;;;;18.23;81.51;101932.72;4769135;30;20051;-60
2022/08/30 08:00:17;;;;;;;11.35;10.15;;;;;;;18.22;80.95;101934.50;4769501;30;20046;-60
2022/08/30 08:02:42;;;;;;;11.80;10.25;;;;;;;18.26;80.98;101949.41;4768862;30;20046;-58
2022/08/30 08:05:09;;;;;;;10.88;9.77;;;;;;;18.36;80.96;101955.31;4759351;30;20206;-59
2022/08/30 08:07:34;;;;;;;12.25;10.18;;;;;;;18.50;80.60;101954.94;4768949;30;20131;-59
2022/08/30 08:10:00;;;;;;;13.02;10.27;;;;;;;18.53;80.43;101954.84;4769162;30;20135;-60
2022/08/30 08:12:26;;;;;;;10.60;9.50;;;;;;;18.56;79.40;101949.44;4770139;30;20050;-58
2022/08/30 08:14:52;;;;;;;11.25;9.68;;;;;;;18.66;79.97;101953.63;4769155;30;20054;-58
2022/08/30 08:17:17;;;;;;;12.85;9.80;;;;;;;18.74;79.93;101946.28;4767890;30;20466;-62
2022/08/30 08:19:42;;;;;;;13.23;9.80;;;;;;;18.83;79.17;101946.03;4766323;30;20174;-61
2022/08/30 08:22:08;;;;;;;12.35;8.93;;;;;;;18.93;79.07;101946.59;4769497;30;20092;-59
2022/08/30 08:24:33;;;;;;;10.75;9.65;;;;;;;18.99;78.78;101944.66;4757701;30;20359;-61
2022/08/30 08:26:58;;;;;;;11.75;8.98;;;;;;;19.05;77.43;101955.06;4754710;30;20054;-59
2022/08/30 08:29:25;;;;;;;13.13;9.65;;;;;;;19.01;77.50;101952.56;4756042;30;20724;-60
2022/08/30 08:31:51;;;;;;;11.43;9.43;;;;;;;19.01;76.71;101957.88;4751180;30;20043;-61
2022/08/30 08:34:18;;;;;;;14.25;8.93;;;;;;;19.03;77.13;101948.94;4750159;30;20505;-61
2022/08/30 08:36:43;;;;;;;13.18;9.05;;;;;;;19.12;76.81;101953.97;4750540;30;20055;-63
2022/08/30 08:39:09;;;;;;;9.48;8.48;;;;;;;19.17;76.85;101956.47;4750589;30;20059;-63
2022/08/30 08:42:03;;;;;;;9.65;8.63;;;;;;;19.31;76.25;101958.69;4750376;30;20104;-62
2022/08/30 08:44:41;;;;;;;11.80;8.23;;;;;;;19.45;75.73;101959.09;4749756;30;20051;-62
2022/08/30 08:47:16;;;;;;;8.68;7.47;;;;;;;19.57;75.07;101941.97;4750288;30;20044;-61
2022/08/30 08:49:46;;;;;;;9.40;6.90;;;;;;;19.79;74.20;101961.53;4750101;30;20039;-61
2022/08/30 08:55:09;;;;;;;8.82;6.35;;;;;;;20.06;72.41;101963.28;4749880;30;20066;-62
2022/08/30 08:57:36;;;;;;;8.75;6.13;;;;;;;20.14;70.94;101969.16;4750435;30;20106;-61
2022/08/30 09:00:10;;;;;;;8.77;5.50;;;;;;;20.24;70.98;101959.09;4749964;30;20083;-60
2022/08/30 09:02:43;;;;;;;8.43;5.47;;;;;;;20.37;69.68;101956.88;4750129;30;20071;-62
2022/08/30 09:05:13;;;;;;;7.15;5.53;;;;;;;20.62;68.28;101962.16;4749997;30;20052;-61
2022/08/30 09:07:42;;;;;;;7.43;4.68;;;;;;;20.78;67.27;101963.34;4749916;30;20044;-59
2022/08/30 09:10:08;;;;;;;6.60;4.53;;;;;;;20.84;65.85;101963.09;4751327;30;20473;-61
2022/08/30 09:12:34;;;;;;;8.20;3.58;;;;;;;20.92;65.72;101961.00;4750351;30;20099;-62
2022/08/30 09:15:10;;;;;;;5.57;3.75;;;;;;;21.07;66.74;101955.09;4749904;30;20364;-61
2022/08/30 09:17:49;;;;;;;5.93;3.65;;;;;;;21.21;65.82;101959.03;4749901;30;20044;-63
2022/08/30 09:20:26;;;;;;;4.88;3.65;;;;;;;21.36;64.34;101950.41;4749681;30;20040;-60
2022/08/30 09:22:51;;;;;;;3.70;3.25;;;;;;;21.42;62.83;101945.72;4750836;30;20044;-60
2022/08/30 09:25:31;;;;;;;7.47;3.20;;;;;;;21.53;64.02;101948.78;4751209;30;20055;-61
2022/08/30 09:28:14;;;;;;;4.38;3.10;;;;;;;21.80;62.65;101957.44;4751071;30;20124;-62
2022/08/30 09:30:58;;;;;;;4.03;3.25;;;;;;;21.84;61.31;101955.50;4750915;30;20070;-62
2022/08/30 09:33:24;;;;;;;4.18;3.17;;;;;;;21.75;61.06;101958.56;4750674;30;20048;-60
2022/08/30 09:35:53;;;;;;;3.72;3.33;;;;;;;21.86;60.56;101957.16;4751003;30;20482;-60
2022/08/30 09:38:31;;;;;;;6.15;3.10;;;;;;;21.92;61.02;101955.19;4751081;30;20072;-60
2022/08/30 09:41:01;;;;;;;3.75;2.63;;;;;;;22.16;60.50;101954.16;4750888;30;20039;-61
2022/08/30 09:43:32;;;;;;;6.45;3.13;;;;;;;22.30;59.36;101943.75;4750769;30;20036;-59
2022/08/30 09:45:58;;;;;;;3.88;2.88;;;;;;;22.43;58.55;101952.91;4750772;30;20040;-60
2022/08/30 09:48:44;;;;;;;4.90;3.17;;;;;;;22.53;58.86;101953.34;4750787;30;20051;-62
2022/08/30 09:51:09;;;;;;;4.00;2.47;;;;;;;22.54;57.40;101955.09;4750806;30;20356;-64
2022/08/30 09:54:13;;;;;;;4.83;3.10;;;;;;;22.61;58.38;101956.53;4757868;30;20044;-63
2022/08/30 09:56:50;;;;;;;8.23;3.20;;;;;;;22.64;57.48;101958.22;4750560;30;20801;-65
2022/08/30 09:59:34;;;;;;;5.00;2.92;;;;;;;22.69;57.59;101958.84;4762591;30;20043;-60
2022/08/30 10:02:03;;;;;;;6.03;2.75;;;;;;;22.69;56.80;101954.38;4772510;30;20055;-62
2022/08/30 10:04:59;;;;;;;5.53;2.90;;;;;;;22.75;57.88;101948.75;4774061;30;20450;-60
2022/08/30 10:07:33;;;;;;;4.75;2.85;;;;;;;22.84;55.80;101953.72;4774327;30;20111;-60
2022/08/30 10:09:58;;;;;;;2.80;2.50;;;;;;;22.98;55.23;101947.72;4774135;30;20039;-60
2022/08/30 10:12:53;;;;;;;5.40;2.80;;;;;;;22.96;56.35;101954.94;4771385;30;20078;-61
2022/08/30 10:15:34;;;;;;;3.78;2.53;;;;;;;23.05;55.42;101949.16;4766188;30;20145;-60
2022/08/30 10:18:05;;;;;;;6.32;2.95;;;;;;;23.12;54.58;101945.25;4774013;30;20040;-60
2022/08/30 10:20:32;;;;;;;4.10;2.00;;;;;;;23.17;55.04;101934.34;4774116;30;20059;-60
2022/08/30 10:23:05;;;;;;;4.85;2.50;;;;;;;23.15;54.20;101946.91;4774040;30;20056;-62
2022/08/30 10:25:47;;;;;;;4.40;2.63;;;;;;;23.09;54.47;101942.72;4774078;30;20077;-61
2022/08/30 10:28:24;;;;;;;;;;;;;;;23.16;54.39;101948.66;4774716;30;20040;-62
2022/08/30 10:31:03;;;;;;;3.83;2.22;;;;;;;23.17;54.67;101934.34;4774090;30;19925;-61
2022/08/30 10:33:36;;;;;;;4.32;2.15;;;;;;;23.37;53.65;101936.91;4772840;30;20053;-61
2022/08/30 10:36:05;;;;;;;5.03;2.30;;;;;;;23.45;52.80;101936.53;4772929;30;20135;-59
2022/08/30 10:38:37;;;;;;;3.92;2.20;;;;;;;23.40;53.11;101938.53;4773465;30;20197;-63
2022/08/30 10:41:30;;;;;;;3.15;2.45;;;;;;;23.45;52.06;101939.19;4771705;30;20361;-60
2022/08/30 10:44:01;;;;;;;3.72;2.30;;;;;;;23.35;52.81;101943.28;4773656;30;20044;-60
2022/08/30 10:46:38;;;;;;;3.97;2.05;;;;;;;23.57;52.25;101935.94;4773914;30;20069;-60
2022/08/30 10:49:07;;;;;;;3.65;1.85;;;;;;;23.73;51.76;101942.22;4773974;30;20050;-61
2022/08/30 10:51:43;;;;;;;6.15;2.50;;;;;;;23.79;51.26;101923.22;4772696;30;20061;-59
2022/08/30 10:54:16;;;;;;;4.05;2.20;;;;;;;23.92;50.41;101928.78;4759842;30;20044;-61
2022/08/30 10:56:44;;;;;;;6.05;2.35;;;;;;;23.89;49.68;101928.97;4766712;30;20406;-60
2022/08/30 10:59:10;;;;;;;6.72;2.15;;;;;;;23.95;50.33;101929.50;4764610;30;20047;-62
2022/08/30 11:02:02;;;;;;;3.72;2.03;;;;;;;24.11;49.88;101920.66;4756345;30;20454;-61
2022/08/30 11:04:33;;;;;;;3.28;1.92;;;;;;;24.09;49.63;101930.56;4756275;30;20433;-59
2022/08/30 11:07:02;;;;;;;9.23;2.03;;;;;;;24.11;49.59;101929.56;4766764;30;20054;-59
2022/08/30 11:09:45;;;;;;;3.42;2.00;;;;;;;24.18;48.93;101916.72;4784178;30;20671;-62
2022/08/30 11:12:31;;;;;;;3.55;1.90;;;;;;;23.95;50.58;101918.81;4773006;30;20122;-61
2022/08/30 11:14:58;;;;;;;4.28;1.70;;;;;;;24.09;49.80;101907.38;4771011;30;20052;-61
2022/08/30 11:17:29;;;;;;;3.92;1.88;;;;;;;24.27;49.62;101924.28;4770962;30;20040;-60
2022/08/30 11:19:57;;;;;;;4.40;2.08;;;;;;;24.38;48.21;101935.31;4770868;30;20140;-60
2022/08/30 11:22:26;;;;;;;4.57;2.10;;;;;;;24.28;48.22;101924.22;4774906;30;20126;-60
2022/08/30 11:25:12;;;;;;;5.43;1.90;;;;;;;24.37;49.21;101925.53;4777561;29;20461;-61